createdAt,value
2023-02-23T00:00:13.775Z, 45.10
2023-02-23T00:01:13.774Z, 45.04
2023-02-23T00:02:13.823Z, 44.99
2023-02-23T00:03:13.841Z, 45.02
2023-02-23T00:04:13.826Z, 45.02
2023-02-23T00:05:13.837Z, 44.92
2023-02-23T00:06:13.835Z, 44.96
2023-02-23T00:07:13.822Z, 44.96
2023-02-23T00:08:13.870Z, 44.92
2023-02-23T00:09:13.862Z, 44.91
2023-02-23T00:10:13.848Z, 44.80
2023-02-23T00:11:13.838Z, 44.74
2023-02-23T00:12:13.829Z, 44.79
2023-02-23T00:13:13.886Z, 44.68
2023-02-23T00:14:13.906Z, 44.72
2023-02-23T00:15:13.892Z, 44.66
2023-02-23T00:16:13.926Z, 44.63
2023-02-23T00:17:13.889Z, 44.61
2023-02-23T00:18:13.911Z, 44.68
2023-02-23T00:19:14.037Z, 44.53
2023-02-23T00:20:13.909Z, 44.52
2023-02-23T00:21:13.924Z, 44.59
2023-02-23T00:22:13.921Z, 44.63
2023-02-23T00:23:13.926Z, 44.59
2023-02-23T00:24:14.026Z, 44.52
2023-02-23T00:25:14.014Z, 44.57
2023-02-23T00:26:14.024Z, 44.50
2023-02-23T00:27:14.026Z, 44.41
2023-02-23T00:28:14.037Z, 44.39
2023-02-23T00:29:14.028Z, 44.36
2023-02-23T00:30:14.047Z, 44.27
2023-02-23T00:31:14.087Z, 44.35
2023-02-23T00:32:14.153Z, 44.36
2023-02-23T00:33:14.069Z, 44.28
2023-02-23T00:34:14.072Z, 44.24
2023-02-23T00:35:14.106Z, 44.26
2023-02-23T00:36:14.097Z, 44.21
2023-02-23T00:37:14.152Z, 44.18
2023-02-23T00:38:14.169Z, 44.12
2023-02-23T00:39:14.167Z, 44.13
2023-02-23T00:40:14.166Z, 44.14
2023-02-23T00:41:14.553Z, 44.08
2023-02-23T00:42:14.172Z, 44.09
2023-02-23T00:43:14.200Z, 44.11
2023-02-23T00:44:14.191Z, 44.11
2023-02-23T00:45:14.193Z, 44.08
2023-02-23T00:46:14.296Z, 44.10
2023-02-23T00:47:14.237Z, 44.09
2023-02-23T00:48:14.227Z, 44.02
2023-02-23T00:49:14.248Z, 43.95
2023-02-23T00:50:14.237Z, 43.96
2023-02-23T00:51:14.231Z, 43.91
2023-02-23T00:52:14.228Z, 43.87
2023-02-23T00:53:14.299Z, 43.82
2023-02-23T00:54:14.304Z, 43.84
2023-02-23T00:55:14.306Z, 43.78
2023-02-23T00:56:14.301Z, 43.78
2023-02-23T00:57:14.297Z, 43.78
2023-02-23T00:58:14.318Z, 43.76
2023-02-23T00:59:14.292Z, 43.73
2023-02-23T01:00:14.374Z, 43.71
2023-02-23T01:01:14.412Z, 43.72
2023-02-23T01:02:14.414Z, 43.66
2023-02-23T01:03:14.362Z, 43.66
2023-02-23T01:04:14.378Z, 43.66
2023-02-23T01:05:14.410Z, 43.66
2023-02-23T01:06:14.418Z, 43.60
2023-02-23T01:07:14.448Z, 43.57
2023-02-23T01:08:14.457Z, 43.48
2023-02-23T01:09:14.455Z, 43.52
2023-02-23T01:10:14.437Z, 43.52
2023-02-23T01:11:14.462Z, 43.54
2023-02-23T01:12:14.445Z, 43.52
2023-02-23T01:13:14.454Z, 43.51
2023-02-23T01:14:14.461Z, 43.42
2023-02-23T01:15:14.506Z, 43.40
2023-02-23T01:16:14.513Z, 43.40
2023-02-23T01:17:14.498Z, 43.38
2023-02-23T01:18:14.495Z, 43.33
2023-02-23T01:19:14.513Z, 43.23
2023-02-23T01:20:14.496Z, 43.25
2023-02-23T01:21:14.552Z, 43.30
2023-02-23T01:22:14.572Z, 43.27
2023-02-23T01:23:14.539Z, 43.19
2023-02-23T01:24:14.560Z, 43.19
2023-02-23T01:25:14.615Z, 43.12
2023-02-23T01:26:14.582Z, 43.20
2023-02-23T01:27:14.577Z, 43.15
2023-02-23T01:28:14.588Z, 43.10
2023-02-23T01:29:14.628Z, 43.12
2023-02-23T01:30:14.614Z, 43.06
2023-02-23T01:31:14.718Z, 43.06
2023-02-23T01:32:14.774Z, 43.06
2023-02-23T01:33:14.659Z, 42.94
2023-02-23T01:34:14.676Z, 42.95
2023-02-23T01:35:14.648Z, 42.97
2023-02-23T01:36:14.654Z, 42.91
2023-02-23T01:37:14.696Z, 42.93
2023-02-23T01:38:14.693Z, 42.93
2023-02-23T01:39:14.748Z, 42.87
2023-02-23T01:40:14.762Z, 42.87
2023-02-23T01:41:14.772Z, 42.87
2023-02-23T01:42:14.770Z, 42.84
2023-02-23T01:43:14.736Z, 42.83
2023-02-23T01:44:14.780Z, 42.75
2023-02-23T01:45:14.761Z, 42.73
2023-02-23T01:46:14.839Z, 42.78
2023-02-23T01:47:14.772Z, 42.77
2023-02-23T01:48:14.827Z, 42.72
2023-02-23T01:49:14.847Z, 42.69
2023-02-23T01:50:14.849Z, 42.68
2023-02-23T01:51:14.824Z, 42.66
2023-02-23T01:52:14.841Z, 42.72
2023-02-23T01:53:14.842Z, 42.65
2023-02-23T01:54:14.832Z, 42.67
2023-02-23T01:55:14.850Z, 42.61
2023-02-23T01:56:14.869Z, 42.53
2023-02-23T01:57:14.946Z, 42.61
2023-02-23T01:58:14.965Z, 42.55
2023-02-23T01:59:14.931Z, 42.53
2023-02-23T02:00:14.998Z, 42.54
2023-02-23T02:01:15.008Z, 42.54
2023-02-23T02:02:14.987Z, 42.45
2023-02-23T02:03:14.986Z, 42.45
2023-02-23T02:04:14.977Z, 42.40
2023-02-23T02:05:15.092Z, 42.33
2023-02-23T02:06:15.008Z, 42.32
2023-02-23T02:07:15.024Z, 42.30
2023-02-23T02:08:15.017Z, 42.25
2023-02-23T02:09:14.999Z, 42.23
2023-02-23T02:10:15.018Z, 42.27
2023-02-23T02:11:15.078Z, 42.18
2023-02-23T02:12:15.079Z, 42.20
2023-02-23T02:13:15.075Z, 42.14
2023-02-23T02:14:15.065Z, 42.16
2023-02-23T02:15:15.141Z, 42.23
2023-02-23T02:16:15.248Z, 42.22
2023-02-23T02:17:15.156Z, 42.19
2023-02-23T02:18:15.186Z, 42.12
2023-02-23T02:19:15.176Z, 42.15
2023-02-23T02:20:15.169Z, 42.11
2023-02-23T02:21:15.151Z, 42.08
2023-02-23T02:22:15.235Z, 42.05
2023-02-23T02:23:15.191Z, 42.06
2023-02-23T02:24:15.203Z, 42.05
2023-02-23T02:25:15.315Z, 41.99
2023-02-23T02:26:15.201Z, 42.03
2023-02-23T02:27:15.196Z, 42.02
2023-02-23T02:28:15.270Z, 41.96
2023-02-23T02:29:15.225Z, 41.95
2023-02-23T02:30:15.237Z, 41.97
2023-02-23T02:31:15.250Z, 41.93
2023-02-23T02:32:15.275Z, 41.89
2023-02-23T02:33:15.232Z, 41.92
2023-02-23T02:34:15.252Z, 41.87
2023-02-23T02:35:15.263Z, 41.83
2023-02-23T02:36:15.278Z, 41.89
2023-02-23T02:37:15.289Z, 41.85
2023-02-23T02:38:15.375Z, 41.84
2023-02-23T02:39:15.346Z, 41.83
2023-02-23T02:40:15.357Z, 41.82
2023-02-23T02:41:15.371Z, 41.80
2023-02-23T02:42:15.340Z, 41.77
2023-02-23T02:43:15.354Z, 41.77
2023-02-23T02:44:15.374Z, 41.74
2023-02-23T02:45:15.416Z, 41.67
2023-02-23T02:46:15.560Z, 41.68
2023-02-23T02:47:15.392Z, 41.73
2023-02-23T02:48:15.410Z, 41.66
2023-02-23T02:49:15.444Z, 41.59
2023-02-23T02:50:15.466Z, 41.60
2023-02-23T02:51:15.470Z, 41.56
2023-02-23T02:52:15.469Z, 41.56
2023-02-23T02:53:15.462Z, 41.52
2023-02-23T02:54:15.539Z, 41.58
2023-02-23T02:55:15.489Z, 41.55
2023-02-23T02:56:15.499Z, 41.45
2023-02-23T02:57:15.513Z, 41.40
2023-02-23T02:58:15.494Z, 41.40
2023-02-23T02:59:15.492Z, 41.32
2023-02-23T03:00:15.509Z, 41.30
2023-02-23T03:01:15.596Z, 41.29
2023-02-23T03:02:15.519Z, 41.27
2023-02-23T03:03:15.526Z, 41.30
2023-02-23T03:04:15.526Z, 41.28
2023-02-23T03:05:15.613Z, 41.30
2023-02-23T03:06:15.532Z, 41.27
2023-02-23T03:07:15.557Z, 41.28
2023-02-23T03:08:15.568Z, 41.27
2023-02-23T03:09:15.587Z, 41.28
2023-02-23T03:10:15.602Z, 41.20
2023-02-23T03:11:15.662Z, 41.20
2023-02-23T03:12:15.619Z, 41.18
2023-02-23T03:13:15.622Z, 41.17
2023-02-23T03:14:15.684Z, 41.24
2023-02-23T03:15:15.669Z, 41.17
2023-02-23T03:16:15.740Z, 41.18
2023-02-23T03:17:15.728Z, 41.12
2023-02-23T03:18:15.692Z, 41.06
2023-02-23T03:19:15.695Z, 41.09
2023-02-23T03:20:15.727Z, 41.14
2023-02-23T03:21:15.936Z, 41.11
2023-02-23T03:22:15.750Z, 41.09
2023-02-23T03:23:15.784Z, 41.05
2023-02-23T03:24:15.813Z, 41.06
2023-02-23T03:25:15.814Z, 41.01
2023-02-23T03:26:15.858Z, 40.97
2023-02-23T03:27:15.840Z, 40.96
2023-02-23T03:28:15.834Z, 40.91
2023-02-23T03:29:15.871Z, 40.88
2023-02-23T03:30:15.820Z, 40.92
2023-02-23T03:31:15.884Z, 40.84
2023-02-23T03:32:16.004Z, 40.80
2023-02-23T03:33:15.835Z, 40.80
2023-02-23T03:34:15.842Z, 40.81
2023-02-23T03:35:15.841Z, 40.77
2023-02-23T03:36:15.839Z, 40.79
2023-02-23T03:37:15.844Z, 40.78
2023-02-23T03:38:15.856Z, 40.75
2023-02-23T03:39:15.865Z, 40.67
2023-02-23T03:40:15.887Z, 40.72
2023-02-23T03:41:16.195Z, 40.76
2023-02-23T03:42:15.889Z, 40.74
2023-02-23T03:43:15.887Z, 40.72
2023-02-23T03:44:15.907Z, 40.71
2023-02-23T03:45:15.921Z, 40.67
2023-02-23T03:46:15.944Z, 40.64
2023-02-23T03:47:15.964Z, 40.65
2023-02-23T03:48:15.976Z, 40.63
2023-02-23T03:49:15.986Z, 40.61
2023-02-23T03:50:15.995Z, 40.57
2023-02-23T03:51:16.195Z, 40.56
2023-02-23T03:52:16.055Z, 40.56
2023-02-23T03:53:16.020Z, 40.58
2023-02-23T03:54:16.035Z, 40.54
2023-02-23T03:55:16.023Z, 40.48
2023-02-23T03:56:16.055Z, 40.47
2023-02-23T03:57:16.051Z, 40.47
2023-02-23T03:58:16.087Z, 40.45
2023-02-23T03:59:16.097Z, 40.40
2023-02-23T04:00:16.089Z, 40.44
2023-02-23T04:01:16.541Z, 40.42
2023-02-23T04:02:16.222Z, 40.43
2023-02-23T04:03:16.270Z, 40.45
2023-02-23T04:04:16.173Z, 40.40
2023-02-23T04:05:16.160Z, 40.36
2023-02-23T04:06:16.147Z, 40.36
2023-02-23T04:07:16.149Z, 40.36
2023-02-23T04:08:16.154Z, 40.37
2023-02-23T04:09:16.141Z, 40.31
2023-02-23T04:10:16.167Z, 40.29
2023-02-23T04:11:16.425Z, 40.30
2023-02-23T04:12:16.223Z, 40.25
2023-02-23T04:13:16.224Z, 40.20
2023-02-23T04:14:16.202Z, 40.20
2023-02-23T04:15:16.182Z, 40.22
2023-02-23T04:16:16.215Z, 40.23
2023-02-23T04:17:16.191Z, 40.17
2023-02-23T04:18:16.237Z, 40.12
2023-02-23T04:19:16.212Z, 40.07
2023-02-23T04:20:16.273Z, 40.10
2023-02-23T04:21:16.267Z, 40.07
2023-02-23T04:22:16.236Z, 40.10
2023-02-23T04:23:16.229Z, 40.05
2023-02-23T04:24:16.225Z, 40.04
2023-02-23T04:25:17.449Z, 40.08
2023-02-23T04:26:16.293Z, 40.11
2023-02-23T04:27:16.308Z, 40.08
2023-02-23T04:28:16.310Z, 40.05
2023-02-23T04:29:16.292Z, 40.10
2023-02-23T04:30:16.301Z, 40.07
2023-02-23T04:31:16.460Z, 40.24
2023-02-23T04:32:16.474Z, 41.72
2023-02-23T04:33:16.419Z, 42.29
2023-02-23T04:34:16.387Z, 42.38
2023-02-23T04:35:16.398Z, 42.37
2023-02-23T04:36:16.427Z, 42.35
2023-02-23T04:37:16.415Z, 42.35
2023-02-23T04:38:16.473Z, 42.38
2023-02-23T04:39:16.464Z, 42.39
2023-02-23T04:40:16.470Z, 42.43
2023-02-23T04:41:16.650Z, 42.41
2023-02-23T04:42:16.417Z, 42.31
2023-02-23T04:43:16.433Z, 42.31
2023-02-23T04:44:16.442Z, 42.29
2023-02-23T04:45:16.453Z, 42.26
2023-02-23T04:46:16.575Z, 42.20
2023-02-23T04:47:16.525Z, 42.14
2023-02-23T04:48:16.529Z, 42.11
2023-02-23T04:49:16.515Z, 42.06
2023-02-23T04:50:16.511Z, 41.96
2023-02-23T04:51:17.005Z, 41.92
2023-02-23T04:52:16.523Z, 41.86
2023-02-23T04:53:16.524Z, 41.80
2023-02-23T04:54:16.588Z, 41.70
2023-02-23T04:55:16.569Z, 41.65
2023-02-23T04:56:16.564Z, 41.57
2023-02-23T04:57:16.566Z, 41.52
2023-02-23T04:58:16.581Z, 41.46
2023-02-23T04:59:16.583Z, 41.37
2023-02-23T05:00:16.592Z, 41.35
2023-02-23T05:01:16.788Z, 41.31
2023-02-23T05:02:16.637Z, 41.24
2023-02-23T05:03:16.639Z, 41.18
2023-02-23T05:04:16.639Z, 41.10
2023-02-23T05:05:16.641Z, 41.09
2023-02-23T05:06:16.638Z, 41.02
2023-02-23T05:07:16.645Z, 40.99
2023-02-23T05:08:16.644Z, 40.92
2023-02-23T05:09:16.706Z, 40.87
2023-02-23T05:10:16.760Z, 40.85
2023-02-23T05:11:16.852Z, 40.80
2023-02-23T05:12:16.746Z, 40.73
2023-02-23T05:13:16.736Z, 40.66
2023-02-23T05:14:16.727Z, 40.62
2023-02-23T05:15:16.722Z, 40.58
2023-02-23T05:16:16.798Z, 40.52
2023-02-23T05:17:16.739Z, 40.47
2023-02-23T05:18:16.773Z, 40.37
2023-02-23T05:19:16.966Z, 40.33
2023-02-23T05:20:16.831Z, 40.33
2023-02-23T05:21:17.131Z, 40.31
2023-02-23T05:22:16.800Z, 40.28
2023-02-23T05:23:16.801Z, 40.23
2023-02-23T05:24:16.808Z, 40.20
2023-02-23T05:25:16.871Z, 40.16
2023-02-23T05:26:16.918Z, 40.10
2023-02-23T05:27:16.899Z, 40.07
2023-02-23T05:28:16.904Z, 40.06
2023-02-23T05:29:16.887Z, 40.04
2023-02-23T05:30:16.891Z, 40.00
2023-02-23T05:31:17.090Z, 39.97
2023-02-23T05:32:17.109Z, 39.93
2023-02-23T05:33:18.308Z, 39.91
2023-02-23T05:34:16.975Z, 39.87
2023-02-23T05:35:16.942Z, 39.85
2023-02-23T05:36:16.948Z, 39.83
2023-02-23T05:37:16.943Z, 39.80
2023-02-23T05:38:16.928Z, 39.75
2023-02-23T05:39:16.932Z, 39.72
2023-02-23T05:40:16.971Z, 39.72
2023-02-23T05:41:17.263Z, 39.66
2023-02-23T05:42:16.960Z, 39.66
2023-02-23T05:43:16.960Z, 39.66
2023-02-23T05:44:17.018Z, 39.64
2023-02-23T05:45:17.011Z, 39.60
2023-02-23T05:46:17.065Z, 39.60
2023-02-23T05:47:17.034Z, 39.58
2023-02-23T05:48:17.043Z, 39.57
2023-02-23T05:49:17.084Z, 39.56
2023-02-23T05:50:17.076Z, 39.53
2023-02-23T05:51:17.683Z, 39.53
2023-02-23T05:52:17.079Z, 39.50
2023-02-23T05:53:17.085Z, 39.46
2023-02-23T05:54:17.092Z, 39.49
2023-02-23T05:55:17.104Z, 39.45
2023-02-23T05:56:17.107Z, 39.46
2023-02-23T05:57:17.187Z, 39.43
2023-02-23T05:58:17.197Z, 39.44
2023-02-23T05:59:17.174Z, 39.39
2023-02-23T06:00:17.172Z, 39.39
2023-02-23T06:01:17.502Z, 39.37
2023-02-23T06:02:17.203Z, 39.37
2023-02-23T06:03:17.255Z, 39.37
2023-02-23T06:04:17.234Z, 39.35
2023-02-23T06:05:17.283Z, 39.35
2023-02-23T06:06:17.227Z, 39.33
2023-02-23T06:07:17.245Z, 39.34
2023-02-23T06:08:17.222Z, 39.34
2023-02-23T06:09:17.228Z, 39.33
2023-02-23T06:10:17.260Z, 39.33
2023-02-23T06:11:17.811Z, 39.34
2023-02-23T06:12:17.284Z, 39.30
2023-02-23T06:13:17.312Z, 39.28
2023-02-23T06:14:17.304Z, 39.29
2023-02-23T06:15:17.304Z, 39.29
2023-02-23T06:16:17.510Z, 39.19
2023-02-23T06:17:17.308Z, 39.11
2023-02-23T06:18:17.307Z, 39.10
2023-02-23T06:19:17.319Z, 39.06
2023-02-23T06:20:17.316Z, 38.87
2023-02-23T06:21:17.645Z, 38.67
2023-02-23T06:22:17.340Z, 38.53
2023-02-23T06:23:17.354Z, 38.37
2023-02-23T06:24:17.371Z, 38.32
2023-02-23T06:25:17.384Z, 38.20
2023-02-23T06:26:17.397Z, 38.12
2023-02-23T06:27:17.455Z, 38.08
2023-02-23T06:28:17.454Z, 38.03
2023-02-23T06:29:17.438Z, 37.96
2023-02-23T06:30:17.479Z, 37.93
2023-02-23T06:31:17.885Z, 37.89
2023-02-23T06:32:17.594Z, 37.83
2023-02-23T06:33:17.540Z, 37.80
2023-02-23T06:34:17.498Z, 37.79
2023-02-23T06:35:17.548Z, 37.74
2023-02-23T06:36:17.565Z, 37.64
2023-02-23T06:37:17.547Z, 37.61
2023-02-23T06:38:17.530Z, 37.56
2023-02-23T06:39:17.569Z, 37.54
2023-02-23T06:40:17.580Z, 37.50
2023-02-23T06:41:17.969Z, 37.51
2023-02-23T06:42:17.581Z, 37.47
2023-02-23T06:43:17.649Z, 37.46
2023-02-23T06:44:17.653Z, 37.45
2023-02-23T06:45:17.633Z, 37.36
2023-02-23T06:46:17.707Z, 37.32
2023-02-23T06:47:17.644Z, 37.38
2023-02-23T06:48:17.685Z, 37.32
2023-02-23T06:49:17.647Z, 37.27
2023-02-23T06:50:17.669Z, 37.26
2023-02-23T06:51:18.132Z, 37.30
2023-02-23T06:52:17.728Z, 37.28
2023-02-23T06:53:17.679Z, 37.29
2023-02-23T06:54:17.692Z, 37.29
2023-02-23T06:55:17.672Z, 37.20
2023-02-23T06:56:17.672Z, 37.17
2023-02-23T06:57:17.685Z, 37.89
2023-02-23T06:58:17.778Z, 42.11
2023-02-23T06:59:17.749Z, 46.90
2023-02-23T07:00:17.815Z, 51.60
2023-02-23T07:01:18.023Z, 56.31
2023-02-23T07:02:17.795Z, 61.30
2023-02-23T07:03:17.831Z, 66.58
2023-02-23T07:04:17.901Z, 53.44
2023-02-23T07:05:17.807Z, 53.15
2023-02-23T07:07:21.003Z, 55.87
2023-02-23T07:08:17.811Z, 59.20
2023-02-23T07:09:17.824Z, 68.38
2023-02-23T07:10:17.839Z, 60.48
2023-02-23T07:11:18.085Z, 53.96
2023-02-23T07:12:17.855Z, 55.04
2023-02-23T07:13:17.898Z, 56.24
2023-02-23T07:14:26.073Z, 58.42
2023-02-23T07:15:17.906Z, 61.41
2023-02-23T07:16:17.978Z, 62.77
2023-02-23T07:17:17.968Z, 57.30
2023-02-23T07:18:17.949Z, 58.10
2023-02-23T07:19:17.962Z, 58.46
2023-02-23T07:20:17.977Z, 58.67
2023-02-23T07:21:18.209Z, 58.58
2023-02-23T07:22:17.970Z, 58.39
2023-02-23T07:23:18.020Z, 58.23
2023-02-23T07:24:17.988Z, 58.01
2023-02-23T07:25:17.991Z, 57.77
2023-02-23T07:26:17.994Z, 57.52
2023-02-23T07:27:17.984Z, 57.33
2023-02-23T07:28:18.026Z, 57.04
2023-02-23T07:29:18.015Z, 56.75
2023-02-23T07:30:18.029Z, 56.50
2023-02-23T07:31:18.444Z, 56.23
2023-02-23T07:32:18.288Z, 55.96
2023-02-23T07:33:18.123Z, 55.69
2023-02-23T07:34:18.132Z, 55.40
2023-02-23T07:35:18.152Z, 55.05
2023-02-23T07:36:18.128Z, 54.81
2023-02-23T07:37:18.111Z, 54.55
2023-02-23T07:38:18.117Z, 54.33
2023-02-23T07:39:18.118Z, 54.12
2023-02-23T07:40:18.131Z, 53.82
2023-02-23T07:41:18.590Z, 53.59
2023-02-23T07:42:18.187Z, 53.31
2023-02-23T07:43:18.195Z, 53.10
2023-02-23T07:44:18.189Z, 52.81
2023-02-23T07:45:18.280Z, 52.63
2023-02-23T07:46:18.324Z, 52.41
2023-02-23T07:47:18.249Z, 52.14
2023-02-23T07:48:18.239Z, 51.99
2023-02-23T07:49:18.298Z, 51.73
2023-02-23T07:50:18.269Z, 51.52
2023-02-23T07:51:18.680Z, 51.37
2023-02-23T07:52:18.312Z, 51.15
2023-02-23T07:53:18.329Z, 50.95
2023-02-23T07:54:18.329Z, 50.72
2023-02-23T07:55:18.325Z, 50.55
2023-02-23T07:56:18.327Z, 50.38
2023-02-23T07:57:19.973Z, 50.17
2023-02-23T07:58:18.336Z, 49.98
2023-02-23T07:59:18.320Z, 49.86
2023-02-23T08:00:18.352Z, 49.66
2023-02-23T08:01:18.753Z, 49.49
2023-02-23T08:02:18.371Z, 49.30
2023-02-23T08:03:18.361Z, 49.15
2023-02-23T08:04:18.429Z, 48.98
2023-02-23T08:05:18.384Z, 48.84
2023-02-23T08:06:18.426Z, 48.73
2023-02-23T08:07:18.436Z, 48.55
2023-02-23T08:08:18.511Z, 48.49
2023-02-23T08:09:18.510Z, 48.28
2023-02-23T08:10:18.475Z, 48.21
2023-02-23T08:11:18.911Z, 48.06
2023-02-23T08:12:18.568Z, 47.88
2023-02-23T08:13:18.550Z, 47.74
2023-02-23T08:14:18.534Z, 47.66
2023-02-23T08:15:18.538Z, 47.56
2023-02-23T08:16:18.639Z, 47.42
2023-02-23T08:17:18.532Z, 47.36
2023-02-23T08:18:18.591Z, 47.25
2023-02-23T08:19:18.548Z, 47.16
2023-02-23T08:20:18.631Z, 47.08
2023-02-23T08:21:19.025Z, 46.94
2023-02-23T08:22:18.608Z, 46.79
2023-02-23T08:23:18.637Z, 46.72
2023-02-23T08:24:18.652Z, 46.61
2023-02-23T08:25:18.671Z, 46.49
2023-02-23T08:26:18.634Z, 46.43
2023-02-23T08:27:18.630Z, 46.30
2023-02-23T08:28:18.757Z, 46.29
2023-02-23T08:29:18.699Z, 46.15
2023-02-23T08:30:18.693Z, 46.06
2023-02-23T08:31:19.349Z, 45.99
2023-02-23T08:32:18.824Z, 45.93
2023-02-23T08:33:18.723Z, 45.84
2023-02-23T08:34:18.719Z, 45.84
2023-02-23T08:35:18.776Z, 45.71
2023-02-23T08:36:18.784Z, 45.70
2023-02-23T08:37:18.767Z, 45.61
2023-02-23T08:38:18.763Z, 45.52
2023-02-23T08:39:18.768Z, 45.50
2023-02-23T08:40:18.757Z, 45.43
2023-02-23T08:41:19.017Z, 45.38
2023-02-23T08:42:18.802Z, 45.35
2023-02-23T08:43:18.878Z, 45.22
2023-02-23T08:44:18.883Z, 45.17
2023-02-23T08:45:18.860Z, 45.16
2023-02-23T08:46:18.968Z, 45.09
2023-02-23T08:47:18.966Z, 44.98
2023-02-23T08:48:18.875Z, 44.98
2023-02-23T08:49:18.907Z, 44.94
2023-02-23T08:50:19.010Z, 44.86
2023-02-23T08:51:19.331Z, 44.79
2023-02-23T08:52:18.998Z, 44.78
2023-02-23T08:53:19.027Z, 44.77
2023-02-23T08:54:19.072Z, 44.68
2023-02-23T08:55:19.043Z, 44.63
2023-02-23T08:56:19.048Z, 44.61
2023-02-23T08:57:19.184Z, 44.53
2023-02-23T08:58:19.067Z, 44.48
2023-02-23T08:59:19.150Z, 44.45
2023-02-23T09:00:19.129Z, 44.35
2023-02-23T09:01:19.671Z, 44.35
2023-02-23T09:02:19.110Z, 44.33
2023-02-23T09:03:19.103Z, 44.18
2023-02-23T09:04:19.088Z, 44.11
2023-02-23T09:05:19.204Z, 44.07
2023-02-23T09:06:19.128Z, 44.02
2023-02-23T09:07:19.109Z, 43.98
2023-02-23T09:08:19.130Z, 43.91
2023-02-23T09:09:19.175Z, 43.87
2023-02-23T09:10:19.166Z, 43.79
2023-02-23T09:11:19.483Z, 43.73
2023-02-23T09:12:19.195Z, 43.70
2023-02-23T09:13:19.194Z, 43.70
2023-02-23T09:14:19.188Z, 43.67
2023-02-23T09:15:19.238Z, 43.58
2023-02-23T09:16:19.281Z, 43.51
2023-02-23T09:17:19.205Z, 43.49
2023-02-23T09:18:19.234Z, 43.45
2023-02-23T09:19:19.268Z, 43.45
2023-02-23T09:20:19.315Z, 43.39
2023-02-23T09:21:19.872Z, 43.35
2023-02-23T09:22:19.288Z, 43.32
2023-02-23T09:23:19.296Z, 43.25
2023-02-23T09:24:19.248Z, 43.15
2023-02-23T09:25:19.396Z, 43.10
2023-02-23T09:26:19.694Z, 43.13
2023-02-23T09:27:19.249Z, 43.11
2023-02-23T09:28:19.295Z, 43.01
2023-02-23T09:29:19.260Z, 42.98
2023-02-23T09:30:19.306Z, 42.98
2023-02-23T09:31:19.875Z, 42.94
2023-02-23T09:32:19.526Z, 42.87
2023-02-23T09:33:19.346Z, 42.83
2023-02-23T09:34:19.360Z, 42.81
2023-02-23T09:35:19.347Z, 42.81
2023-02-23T09:36:19.370Z, 42.84
2023-02-23T09:37:19.383Z, 42.71
2023-02-23T09:38:19.358Z, 42.72
2023-02-23T09:39:29.059Z, 42.70
2023-02-23T09:40:19.386Z, 42.60
2023-02-23T09:41:19.700Z, 42.57
2023-02-23T09:42:19.417Z, 42.49
2023-02-23T09:43:19.389Z, 42.53
2023-02-23T09:44:19.386Z, 42.49
2023-02-23T09:45:19.405Z, 42.51
2023-02-23T09:46:19.466Z, 42.41
2023-02-23T09:47:19.475Z, 42.43
2023-02-23T09:48:19.408Z, 42.40
2023-02-23T09:49:19.441Z, 42.37
2023-02-23T09:50:19.406Z, 42.35
2023-02-23T09:51:19.771Z, 42.33
2023-02-23T09:52:19.999Z, 42.30
2023-02-23T09:53:19.481Z, 42.34
2023-02-23T09:54:19.477Z, 42.28
2023-02-23T09:55:19.470Z, 42.27
2023-02-23T09:56:19.488Z, 42.31
2023-02-23T09:57:19.487Z, 42.29
2023-02-23T09:58:19.534Z, 42.21
2023-02-23T09:59:19.554Z, 42.21
2023-02-23T10:00:19.596Z, 42.11
2023-02-23T10:01:20.065Z, 42.08
2023-02-23T10:02:19.562Z, 42.08
2023-02-23T10:03:19.545Z, 42.11
2023-02-23T10:04:19.554Z, 42.07
2023-02-23T10:05:19.561Z, 42.03
2023-02-23T10:06:19.580Z, 41.99
2023-02-23T10:07:19.588Z, 41.98
2023-02-23T10:08:19.621Z, 42.03
2023-02-23T10:09:19.626Z, 41.92
2023-02-23T10:10:19.642Z, 41.88
2023-02-23T10:11:19.982Z, 41.91
2023-02-23T10:12:19.628Z, 41.88
2023-02-23T10:13:19.634Z, 41.86
2023-02-23T10:14:19.657Z, 41.77
2023-02-23T10:15:19.653Z, 41.78
2023-02-23T10:16:19.839Z, 41.72
2023-02-23T10:17:19.725Z, 41.75
2023-02-23T10:18:19.724Z, 41.73
2023-02-23T10:19:19.718Z, 41.69
2023-02-23T10:20:19.731Z, 41.64
2023-02-23T10:21:20.050Z, 41.56
2023-02-23T10:22:19.728Z, 41.55
2023-02-23T10:23:19.741Z, 41.57
2023-02-23T10:24:19.741Z, 41.53
2023-02-23T10:25:19.752Z, 41.49
2023-02-23T10:26:19.793Z, 41.49
2023-02-23T10:27:19.777Z, 41.61
2023-02-23T10:28:19.803Z, 41.45
2023-02-23T10:29:19.818Z, 41.42
2023-02-23T10:30:19.850Z, 41.34
2023-02-23T10:31:20.289Z, 41.34
2023-02-23T10:32:19.957Z, 41.33
2023-02-23T10:33:19.861Z, 41.31
2023-02-23T10:34:21.842Z, 41.30
2023-02-23T10:35:19.863Z, 41.29
2023-02-23T10:36:19.889Z, 41.28
2023-02-23T10:37:19.893Z, 41.19
2023-02-23T10:38:19.956Z, 41.17
2023-02-23T10:39:19.957Z, 41.16
2023-02-23T10:40:19.990Z, 41.16
2023-02-23T10:41:20.254Z, 41.11
2023-02-23T10:42:20.005Z, 41.14
2023-02-23T10:43:20.016Z, 41.14
2023-02-23T10:44:20.011Z, 41.06
2023-02-23T10:45:20.008Z, 41.09
2023-02-23T10:46:20.065Z, 41.09
2023-02-23T10:47:20.063Z, 41.08
2023-02-23T10:48:20.026Z, 41.00
2023-02-23T10:49:20.058Z, 41.00
2023-02-23T10:50:20.041Z, 41.00
2023-02-23T10:51:20.400Z, 40.98
2023-02-23T10:52:20.054Z, 40.95
2023-02-23T10:53:20.023Z, 40.92
2023-02-23T10:54:20.111Z, 40.85
2023-02-23T10:55:20.074Z, 40.84
2023-02-23T10:56:20.109Z, 40.84
2023-02-23T10:57:20.093Z, 40.82
2023-02-23T10:58:20.084Z, 40.86
2023-02-23T10:59:20.552Z, 40.82
2023-02-23T11:00:20.310Z, 40.78
2023-02-23T11:01:20.875Z, 41.38
2023-02-23T11:02:20.397Z, 42.72
2023-02-23T11:03:20.182Z, 43.07
2023-02-23T11:04:20.231Z, 43.22
2023-02-23T11:05:20.169Z, 43.12
2023-02-23T11:06:20.208Z, 42.88
2023-02-23T11:07:20.238Z, 42.44
2023-02-23T11:08:20.196Z, 41.98
2023-02-23T11:09:21.602Z, 41.58
2023-02-23T11:10:20.225Z, 41.17
2023-02-23T11:11:20.555Z, 40.70
2023-02-23T11:12:20.232Z, 39.40
2023-02-23T11:13:20.274Z, 36.40
2023-02-23T11:14:20.293Z, 32.91
2023-02-23T11:15:20.338Z, 29.40
2023-02-23T11:16:20.457Z, 28.08
2023-02-23T11:17:20.297Z, 31.92
2023-02-23T11:18:20.373Z, 35.58
2023-02-23T11:19:20.350Z, 37.98
2023-02-23T11:20:20.332Z, 39.62
2023-02-23T11:21:20.571Z, 41.25
2023-02-23T11:22:20.327Z, 41.93
2023-02-23T11:23:20.393Z, 39.42
2023-02-23T11:24:20.391Z, 36.81
2023-02-23T11:25:20.356Z, 34.46
2023-02-23T11:26:20.447Z, 32.55
2023-02-23T11:27:20.424Z, 30.51
2023-02-23T11:28:20.442Z, 28.50
2023-02-23T11:29:20.514Z, 27.34
2023-02-23T11:30:20.469Z, 31.22
2023-02-23T11:31:20.745Z, 37.21
2023-02-23T11:32:20.711Z, 43.23
2023-02-23T11:33:20.488Z, 46.04
2023-02-23T11:34:20.495Z, 46.23
2023-02-23T11:35:20.525Z, 45.98
2023-02-23T11:36:20.465Z, 45.81
2023-02-23T11:37:20.488Z, 45.57
2023-02-23T11:38:20.477Z, 45.28
2023-02-23T11:39:20.477Z, 45.04
2023-02-23T11:40:20.478Z, 44.77
2023-02-23T11:41:20.796Z, 44.56
2023-02-23T11:42:20.492Z, 44.35
2023-02-23T11:43:20.516Z, 44.14
2023-02-23T11:44:20.592Z, 43.94
2023-02-23T11:45:20.590Z, 43.81
2023-02-23T11:46:21.083Z, 43.63
2023-02-23T11:47:20.617Z, 43.45
2023-02-23T11:48:20.562Z, 43.27
2023-02-23T11:49:20.577Z, 43.10
2023-02-23T11:50:20.627Z, 42.97
2023-02-23T11:51:20.677Z, 42.80
2023-02-23T11:52:20.660Z, 42.64
2023-02-23T11:53:20.671Z, 42.48
2023-02-23T11:54:20.663Z, 42.35
2023-02-23T11:55:20.658Z, 42.19
2023-02-23T11:56:21.301Z, 42.07
2023-02-23T11:57:20.671Z, 41.93
2023-02-23T11:58:20.702Z, 41.79
2023-02-23T11:59:20.682Z, 41.65
2023-02-23T12:00:20.732Z, 41.49
2023-02-23T12:01:20.749Z, 41.37
2023-02-23T12:02:20.763Z, 41.22
2023-02-23T12:03:20.850Z, 41.09
2023-02-23T12:04:20.756Z, 40.94
2023-02-23T12:05:20.796Z, 40.83
2023-02-23T12:06:21.171Z, 40.67
2023-02-23T12:07:20.782Z, 40.58
2023-02-23T12:08:20.824Z, 40.45
2023-02-23T12:09:20.809Z, 40.31
2023-02-23T12:10:20.846Z, 40.19
2023-02-23T12:11:20.833Z, 40.08
2023-02-23T12:12:20.826Z, 39.99
2023-02-23T12:13:20.821Z, 39.87
2023-02-23T12:14:20.819Z, 39.72
2023-02-23T12:15:20.821Z, 39.61
2023-02-23T12:16:21.150Z, 39.49
2023-02-23T12:17:20.853Z, 39.38
2023-02-23T12:18:20.921Z, 39.27
2023-02-23T12:19:20.891Z, 39.18
2023-02-23T12:20:20.890Z, 39.07
2023-02-23T12:21:20.905Z, 38.90
2023-02-23T12:22:20.890Z, 38.82
2023-02-23T12:23:20.955Z, 38.70
2023-02-23T12:24:20.945Z, 38.61
2023-02-23T12:25:20.944Z, 38.46
2023-02-23T12:26:21.251Z, 38.38
2023-02-23T12:27:21.032Z, 38.31
2023-02-23T12:28:20.998Z, 38.23
2023-02-23T12:29:21.005Z, 38.16